Time;durP1;ratioP1;P1;durP2;ratioP2;P2;SDS_P1;SDS_P2;PMS_P1;PMS_P2;Temp;Humidity;BMP_temperature;BMP_pressure;BME280_temperature;BME280_humidity;BME280_pressure;Samples;Min_cycle;Max_cycle;Signal;HPM_P1;HPM_P2
2022/03/20 00:00:32;;;;;;;7.30;3.80;;;14.60;79.00;;;;;;4983155;28;20105;-69
2022/03/20 00:02:57;;;;;;;7.35;3.97;;;14.70;80.20;;;;;;4992441;28;20054;-66
2022/03/20 00:05:24;;;;;;;6.85;3.45;;;;;;;;;;4994510;28;20509;-67
2022/03/20 00:07:49;;;;;;;7.00;3.60;;;14.60;81.50;;;;;;4996362;28;20050;-67
2022/03/20 00:10:15;;;;;;;6.40;3.65;;;14.70;81.50;;;;;;4995673;28;20050;-67
2022/03/20 00:12:41;;;;;;;7.15;3.58;;;14.80;81.60;;;;;;4977238;28;20073;-66
2022/03/20 00:15:08;;;;;;;6.18;3.42;;;14.70;81.50;;;;;;4980231;28;20049;-67
2022/03/20 00:17:34;;;;;;;6.25;3.22;;;14.60;79.90;;;;;;4996800;28;20044;-67
2022/03/20 00:19:59;;;;;;;7.13;3.67;;;14.60;81.50;;;;;;4998677;28;20423;-68
2022/03/20 00:22:25;;;;;;;6.13;3.97;;;14.70;81.60;;;;;;5005589;28;20108;-68
2022/03/20 00:24:51;;;;;;;7.72;3.83;;;14.80;81.90;;;;;;5008378;28;20054;-66
2022/03/20 00:27:17;;;;;;;6.95;4.03;;;;;;;;;;4997355;28;20049;-66
2022/03/20 00:29:43;;;;;;;7.40;3.22;;;;;;;;;;4995858;28;20046;-66
2022/03/20 00:32:10;;;;;;;7.68;3.85;;;14.60;81.50;;;;;;4996107;28;20042;-68
2022/03/20 00:34:36;;;;;;;8.38;3.55;;;14.40;81.50;;;;;;4996211;28;20053;-66
2022/03/20 00:37:03;;;;;;;8.57;3.75;;;14.30;81.40;;;;;;4996011;28;20404;-66
2022/03/20 00:39:29;;;;;;;6.95;3.80;;;;;;;;;;4995614;28;20101;-66
2022/03/20 00:41:55;;;;;;;6.32;3.40;;;14.70;79.10;;;;;;4996142;28;20396;-67
2022/03/20 00:44:21;;;;;;;9.02;3.90;;;14.60;81.40;;;;;;4996301;28;20050;-67
2022/03/20 00:46:48;;;;;;;8.27;4.28;;;14.50;81.50;;;;;;5011103;28;20039;-67
2022/03/20 00:49:15;;;;;;;8.40;3.88;;;14.40;81.80;;;;;;5010929;28;20057;-67
2022/03/20 00:51:40;;;;;;;8.40;3.60;;;14.60;80.90;;;;;;5002609;28;20045;-68
2022/03/20 00:54:06;;;;;;;7.22;4.00;;;14.50;81.60;;;;;;5015542;28;20045;-67
2022/03/20 00:56:32;;;;;;;7.00;3.58;;;14.70;81.50;;;;;;5010655;28;20445;-67
2022/03/20 00:58:57;;;;;;;7.53;3.78;;;14.40;81.40;;;;;;5015655;28;20057;-66
2022/03/20 01:01:23;;;;;;;7.97;3.80;;;14.10;81.30;;;;;;4998731;28;20046;-66
2022/03/20 01:03:49;;;;;;;6.75;3.70;;;14.40;81.70;;;;;;4995238;28;20121;-66
2022/03/20 01:06:17;;;;;;;7.60;3.78;;;14.50;81.50;;;;;;4999412;28;20055;-66
2022/03/20 01:08:43;;;;;;;7.30;3.58;;;14.20;81.30;;;;;;4985360;28;20108;-62
2022/03/20 01:11:09;;;;;;;7.65;3.63;;;14.30;81.50;;;;;;5013220;28;20184;-70
2022/03/20 01:13:35;;;;;;;7.40;3.78;;;14.30;81.60;;;;;;4997513;28;20404;-71
2022/03/20 01:16:02;;;;;;;7.72;4.00;;;;;;;;;;4995101;28;20050;-69
2022/03/20 01:18:28;;;;;;;7.93;3.88;;;;;;;;;;4995562;28;20054;-64
2022/03/20 01:20:54;;;;;;;6.90;3.60;;;;;;;;;;4995246;28;20129;-61
2022/03/20 01:23:23;;;;;;;7.07;4.05;;;;;;;;;;5006983;28;20045;-63
2022/03/20 01:25:50;;;;;;;7.30;3.92;;;;;;;;;;4997763;28;20101;-71
2022/03/20 01:28:16;;;;;;;8.65;4.10;;;14.40;81.50;;;;;;4995045;28;20074;-65
2022/03/20 01:30:42;;;;;;;7.75;3.72;;;;;;;;;;4994080;28;20044;-62
2022/03/20 01:33:08;;;;;;;9.93;4.20;;;14.20;81.40;;;;;;4994768;28;20050;-64
2022/03/20 01:35:35;;;;;;;8.80;4.13;;;;;;;;;;5005520;28;20133;-63
2022/03/20 01:38:02;;;;;;;7.93;4.10;;;14.30;81.40;;;;;;5014582;28;20140;-68
2022/03/20 01:40:28;;;;;;;9.38;4.15;;;14.20;81.30;;;;;;4999526;28;20045;-66
2022/03/20 01:42:53;;;;;;;7.43;4.30;;;14.10;81.30;;;;;;4994834;28;20109;-70
2022/03/20 01:45:20;;;;;;;7.80;4.40;;;14.20;81.40;;;;;;4988407;28;20046;-72
2022/03/20 01:47:49;;;;;;;9.32;4.43;;;14.20;81.30;;;;;;4995995;28;20044;-67
2022/03/20 01:50:21;;;;;;;8.25;4.45;;;14.30;78.60;;;;;;5008113;28;20211;-66
2022/03/20 01:52:47;;;;;;;8.25;4.40;;;14.20;81.40;;;;;;4994443;28;20146;-68
2022/03/20 01:55:14;;;;;;;8.98;4.75;;;;;;;;;;4994347;28;20042;-68
2022/03/20 01:57:39;;;;;;;8.00;4.30;;;14.10;81.60;;;;;;4994642;28;20399;-66
2022/03/20 02:00:06;;;;;;;9.65;4.93;;;;;;;;;;4994208;28;20121;-68
2022/03/20 02:02:32;;;;;;;8.02;5.03;;;14.10;81.30;;;;;;4994069;28;20053;-67
2022/03/20 02:04:59;;;;;;;8.75;4.68;;;;;;;;;;4977229;28;20046;-67
2022/03/20 02:07:25;;;;;;;8.98;5.30;;;14.40;81.40;;;;;;4965637;28;20050;-66
2022/03/20 02:09:51;;;;;;;9.80;4.80;;;14.30;81.60;;;;;;5006511;28;20061;-67
2022/03/20 02:12:17;;;;;;;8.68;4.90;;;14.10;81.70;;;;;;5002098;28;20046;-68
2022/03/20 02:14:43;;;;;;;9.57;5.15;;;14.10;81.30;;;;;;4944958;28;20046;-67
2022/03/20 02:17:11;;;;;;;9.02;4.88;;;14.20;81.40;;;;;;4993240;28;20038;-68
2022/03/20 02:19:38;;;;;;;10.05;5.43;;;;;;;;;;5002929;28;20046;-67
2022/03/20 02:22:04;;;;;;;10.32;5.70;;;14.10;81.50;;;;;;4999756;28;20065;-66
2022/03/20 02:24:38;;;;;;;11.88;5.68;;;;;;;;;;4975257;28;20043;-67
2022/03/20 02:27:18;;;;;;;9.65;5.60;;;14.10;81.30;;;;;;4995254;28;20049;-66
2022/03/20 02:29:48;;;;;;;9.30;5.43;;;14.00;81.20;;;;;;4993817;28;20416;-68
2022/03/20 02:32:16;;;;;;;9.57;5.35;;;;;;;;;;5008070;28;20050;-66
2022/03/20 02:34:42;;;;;;;9.57;5.50;;;13.90;78.50;;;;;;4995604;28;20049;-66
2022/03/20 02:37:08;;;;;;;10.10;5.63;;;14.10;81.20;;;;;;4994044;28;20046;-68
2022/03/20 02:39:34;;;;;;;9.60;5.47;;;13.80;80.90;;;;;;4993789;28;20125;-66
2022/03/20 02:42:01;;;;;;;10.98;5.60;;;14.00;78.00;;;;;;4996367;28;20125;-66
2022/03/20 02:44:46;;;;;;;9.27;5.68;;;13.70;76.90;;;;;;4995449;28;20049;-66
2022/03/20 02:47:12;;;;;;;10.68;5.45;;;14.00;80.20;;;;;;5008291;28;20054;-66
2022/03/20 02:49:38;;;;;;;10.40;6.05;;;14.00;81.00;;;;;;4993602;28;20048;-66
2022/03/20 02:52:04;;;;;;;9.77;6.20;;;14.00;81.00;;;;;;4990888;28;20054;-63
2022/03/20 02:54:31;;;;;;;11.48;5.70;;;;;;;;;;4993723;28;20045;-62
2022/03/20 02:56:57;;;;;;;9.60;5.72;;;14.20;81.10;;;;;;5008357;28;20430;-66
2022/03/20 02:59:23;;;;;;;9.07;6.03;;;;;;;;;;5004928;28;20580;-66
2022/03/20 03:01:49;;;;;;;9.50;5.75;;;14.00;81.00;;;;;;4994592;28;20041;-66
2022/03/20 03:04:15;;;;;;;8.93;5.80;;;13.80;78.30;;;;;;4976785;28;20046;-66
2022/03/20 03:06:40;;;;;;;11.05;6.47;;;14.00;80.90;;;;;;4990546;28;20050;-68
2022/03/20 03:11:50;;;;;;;10.23;6.60;;;14.00;80.90;;;;;;4986129;28;20096;-69
2022/03/20 03:17:00;;;;;;;8.65;5.45;;;13.90;80.40;;;;;;4977417;28;20397;-67
2022/03/20 03:19:26;;;;;;;11.50;6.30;;;14.00;80.80;;;;;;4987981;28;20043;-68
2022/03/20 03:21:52;;;;;;;12.43;6.60;;;;;;;;;;4989428;28;20035;-66
2022/03/20 03:24:18;;;;;;;11.27;6.15;;;14.00;80.90;;;;;;4975879;28;20050;-68
2022/03/20 03:26:43;;;;;;;13.05;6.80;;;13.80;78.00;;;;;;4985717;28;20039;-68
2022/03/20 03:29:10;;;;;;;10.63;6.38;;;;;;;;;;4972738;28;20046;-61
2022/03/20 03:31:35;;;;;;;10.93;6.65;;;13.70;77.90;;;;;;4973934;28;20397;-71
2022/03/20 03:36:45;;;;;;;14.35;6.82;;;13.90;80.70;;;;;;4973982;28;20047;-68
2022/03/20 03:39:12;;;;;;;10.05;6.25;;;13.90;80.70;;;;;;4985102;28;20059;-67
2022/03/20 03:41:37;;;;;;;13.32;6.88;;;14.00;80.80;;;;;;4982132;28;20113;-66
2022/03/20 03:44:03;;;;;;;10.98;6.75;;;13.90;80.60;;;;;;4974852;28;20038;-68
2022/03/20 03:46:29;;;;;;;11.77;6.82;;;14.00;80.50;;;;;;4971106;28;20078;-68
2022/03/20 03:48:55;;;;;;;10.32;6.07;;;13.90;80.50;;;;;;4961071;28;20106;-66
2022/03/20 03:51:20;;;;;;;12.57;6.95;;;14.00;80.60;;;;;;4973870;28;20479;-66
2022/03/20 03:53:46;;;;;;;11.43;6.85;;;14.00;79.70;;;;;;4965793;28;20481;-67
2022/03/20 03:56:12;;;;;;;11.98;7.55;;;14.10;77.90;;;;;;4977822;28;20046;-67
2022/03/20 03:58:37;;;;;;;11.05;6.95;;;13.90;80.40;;;;;;4977203;28;20129;-67
2022/03/20 04:01:03;;;;;;;10.73;6.95;;;14.00;80.40;;;;;;4978260;28;20042;-67
2022/03/20 04:03:29;;;;;;;10.52;6.30;;;13.90;80.40;;;;;;4996439;28;20042;-66
2022/03/20 04:05:56;;;;;;;13.25;7.72;;;13.80;80.30;;;;;;4997746;28;20206;-67
2022/03/20 04:08:22;;;;;;;11.65;7.30;;;13.50;80.20;;;;;;4995756;28;20046;-72
2022/03/20 04:10:48;;;;;;;11.65;7.18;;;;;;;;;;4996621;28;20492;-62
2022/03/20 04:13:14;;;;;;;13.05;7.50;;;14.10;77.90;;;;;;4997330;28;20097;-61
2022/03/20 04:15:40;;;;;;;14.60;8.13;;;13.90;80.40;;;;;;4996235;28;20519;-61
2022/03/20 04:18:08;;;;;;;12.27;7.53;;;;;;;;;;5012130;28;20054;-71
2022/03/20 04:20:34;;;;;;;11.63;7.40;;;13.90;80.80;;;;;;5012059;28;20165;-62
2022/03/20 04:25:44;;;;;;;13.95;7.80;;;13.80;77.80;;;;;;4995712;28;20498;-68
2022/03/20 04:28:10;;;;;;;11.48;7.13;;;13.80;80.20;;;;;;5006999;28;20172;-66
2022/03/20 04:30:36;;;;;;;11.27;7.18;;;;;;;;;;5015174;28;20099;-70
2022/03/20 04:33:01;;;;;;;11.82;7.35;;;13.80;80.30;;;;;;5001018;28;20053;-68
2022/03/20 04:35:27;;;;;;;11.70;7.78;;;13.90;80.30;;;;;;4996064;28;20046;-66
2022/03/20 04:37:54;;;;;;;11.02;7.97;;;13.80;80.20;;;;;;4996081;28;20136;-66
2022/03/20 04:40:20;;;;;;;13.25;7.95;;;13.30;79.90;;;;;;4996124;28;20461;-62
2022/03/20 04:42:45;;;;;;;12.68;7.95;;;13.70;80.10;;;;;;5004646;28;20045;-65
2022/03/20 04:45:12;;;;;;;12.38;7.55;;;;;;;;;;5015647;28;20046;-61
2022/03/20 04:58:40;;;;;;;15.23;8.45;;;13.70;80.00;;;;;;4995933;28;20104;-62
2022/03/20 05:01:06;;;;;;;13.20;8.63;;;13.60;77.40;;;;;;4993853;28;20492;-65
2022/03/20 05:03:32;;;;;;;14.25;9.05;;;13.80;80.10;;;;;;4995841;28;20110;-65
2022/03/20 05:05:58;;;;;;;13.10;8.27;;;;;;;;;;4994335;28;20050;-63
2022/03/20 05:08:24;;;;;;;15.80;8.68;;;13.90;77.40;;;;;;4995432;28;20392;-63
2022/03/20 05:13:35;;;;;;;13.27;8.60;;;;;;;;;;4995046;28;20125;-65
2022/03/20 05:16:01;;;;;;;14.25;9.00;;;13.70;80.00;;;;;;4995550;28;20058;-63
2022/03/20 05:18:26;;;;;;;12.77;9.25;;;13.60;77.30;;;;;;4998736;28;20117;-66
2022/03/20 05:20:52;;;;;;;12.32;8.77;;;13.50;79.90;;;;;;5005042;28;20048;-66
2022/03/20 05:23:21;;;;;;;12.93;8.77;;;13.40;76.70;;;;;;5001236;28;20480;-67
2022/03/20 05:25:47;;;;;;;15.70;8.98;;;;;;;;;;4995091;28;20512;-66
2022/03/20 05:28:15;;;;;;;16.10;9.60;;;13.40;79.70;;;;;;4995091;28;20403;-66
2022/03/20 05:30:42;;;;;;;13.70;9.73;;;13.40;77.00;;;;;;4995339;28;20124;-68
2022/03/20 05:33:10;;;;;;;14.05;9.80;;;;;;;;;;5003748;28;20045;-66
2022/03/20 05:35:36;;;;;;;14.77;9.85;;;;;;;;;;4993495;28;20054;-66
2022/03/20 05:38:03;;;;;;;16.45;9.35;;;;;;;;;;4995352;28;20555;-66
2022/03/20 05:40:29;;;;;;;15.63;9.35;;;;;;;;;;5010302;28;20155;-66
2022/03/20 05:42:54;;;;;;;13.25;9.07;;;13.30;79.70;;;;;;4995543;28;20045;-66
2022/03/20 05:45:20;;;;;;;15.32;10.18;;;13.40;79.70;;;;;;5001246;28;20136;-67
2022/03/20 05:47:46;;;;;;;15.23;10.05;;;;;;;;;;4983389;28;20034;-67
2022/03/20 05:50:12;;;;;;;12.93;9.65;;;13.40;79.80;;;;;;5002140;28;20547;-66
2022/03/20 05:52:38;;;;;;;14.77;10.02;;;13.50;79.80;;;;;;5000764;28;20130;-71
2022/03/20 05:55:04;;;;;;;15.88;10.90;;;13.10;79.60;;;;;;4995141;28;20081;-66
2022/03/20 06:00:22;;;;;;;13.60;10.55;;;;;;;;;;5011382;28;20473;-66
2022/03/20 06:02:47;;;;;;;15.07;10.15;;;13.30;79.60;;;;;;4995749;28;20053;-66
2022/03/20 06:05:13;;;;;;;18.40;10.52;;;13.50;77.20;;;;;;4989789;28;20063;-66
2022/03/20 06:07:41;;;;;;;14.75;10.30;;;;;;;;;;4986503;28;20042;-66
2022/03/20 06:10:09;;;;;;;15.10;10.88;;;13.20;77.00;;;;;;4993224;28;20050;-66
2022/03/20 06:12:35;;;;;;;17.35;10.57;;;13.50;79.60;;;;;;4994868;28;20054;-66
2022/03/20 06:15:01;;;;;;;16.05;10.68;;;13.40;79.50;;;;;;4990776;28;20053;-66
2022/03/20 06:17:27;;;;;;;17.65;11.80;;;13.10;76.70;;;;;;4983996;28;20118;-65
2022/03/20 06:19:52;;;;;;;17.13;11.13;;;13.70;79.40;;;;;;4995754;28;20198;-66
2022/03/20 06:22:18;;;;;;;15.77;11.13;;;13.60;76.70;;;;;;4984017;28;20397;-66
2022/03/20 06:24:44;;;;;;;16.52;10.90;;;13.50;79.10;;;;;;4994262;28;20042;-66
2022/03/20 06:27:10;;;;;;;15.15;10.65;;;13.50;79.00;;;;;;5001834;28;20503;-66
2022/03/20 06:29:36;;;;;;;15.48;11.13;;;13.50;76.40;;;;;;4980256;28;20051;-67
2022/03/20 06:32:02;;;;;;;17.05;11.27;;;13.70;78.90;;;;;;4994062;28;20043;-66
2022/03/20 06:34:28;;;;;;;17.25;10.68;;;13.70;76.20;;;;;;4993972;28;20038;-66
2022/03/20 06:36:57;;;;;;;15.75;11.50;;;13.90;78.70;;;;;;4993870;28;20473;-66
2022/03/20 06:39:24;;;;;;;15.18;10.85;;;;;;;;;;5009075;28;20052;-66
2022/03/20 06:41:49;;;;;;;16.42;10.63;;;14.00;78.40;;;;;;4994919;28;20121;-66
2022/03/20 06:44:15;;;;;;;15.63;10.00;;;14.00;78.20;;;;;;5013697;28;20136;-68
2022/03/20 06:46:42;;;;;;;16.15;11.05;;;14.00;78.00;;;;;;4999838;28;20382;-67
2022/03/20 06:49:09;;;;;;;14.30;10.27;;;14.30;78.10;;;;;;5011353;28;20120;-65
2022/03/20 06:51:35;;;;;;;14.73;10.02;;;14.30;78.00;;;;;;5011471;28;20450;-66
2022/03/20 06:54:00;;;;;;;14.73;10.85;;;14.20;74.90;;;;;;4999984;28;20138;-70
2022/03/20 06:56:30;;;;;;;16.45;10.27;;;;;;;;;;4993927;28;20038;-66
2022/03/20 06:58:56;;;;;;;16.58;11.68;;;14.50;77.50;;;;;;5013287;28;20121;-67
2022/03/20 07:01:22;;;;;;;16.27;10.75;;;;;;;;;;5012946;28;20100;-66
2022/03/20 07:03:48;;;;;;;13.55;9.85;;;14.80;77.30;;;;;;4993999;28;20046;-66
2022/03/20 07:06:14;;;;;;;18.30;11.80;;;14.60;74.40;;;;;;4993226;28;20077;-66
2022/03/20 07:08:40;;;;;;;16.10;11.15;;;14.90;77.10;;;;;;5001206;28;20045;-66
2022/03/20 07:11:06;;;;;;;16.65;11.80;;;14.90;74.20;;;;;;5013567;28;20046;-66
2022/03/20 07:13:50;;;;;;;16.35;11.82;;;14.90;76.70;;;;;;4995344;28;20421;-66
2022/03/20 07:16:16;;;;;;;14.70;10.63;;;14.80;76.50;;;;;;4997326;28;20049;-66
2022/03/20 07:18:42;;;;;;;17.15;11.57;;;14.90;76.40;;;;;;5001917;28;20492;-64
2022/03/20 07:21:08;;;;;;;14.55;11.10;;;14.90;76.30;;;;;;5007523;28;20073;-65
2022/03/20 07:23:36;;;;;;;18.35;11.45;;;15.00;73.20;;;;;;4980354;28;20057;-66
2022/03/20 07:31:30;;;;;;;18.50;12.27;;;15.40;73.10;;;;;;5008308;28;20117;-68
2022/03/20 07:33:56;;;;;;;21.58;11.88;;;15.40;75.80;;;;;;5003168;28;20042;-66
2022/03/20 07:36:22;;;;;;;18.08;11.98;;;15.30;75.50;;;;;;5010139;28;20412;-62
2022/03/20 07:38:50;;;;;;;20.35;11.60;;;15.40;75.40;;;;;;4999671;28;20034;-61
2022/03/20 07:41:16;;;;;;;15.68;11.73;;;15.60;75.40;;;;;;5017460;28;20093;-61
2022/03/20 07:43:42;;;;;;;17.02;11.63;;;;;;;;;;5014644;28;20045;-66
2022/03/20 07:46:08;;;;;;;16.35;12.05;;;15.60;75.10;;;;;;5016836;28;20050;-66
2022/03/20 07:48:34;;;;;;;18.02;11.98;;;15.60;75.20;;;;;;5014936;28;20042;-67
2022/03/20 07:51:00;;;;;;;16.55;11.75;;;15.80;75.00;;;;;;5016580;28;20072;-66
2022/03/20 07:53:26;;;;;;;17.25;12.02;;;15.80;74.70;;;;;;5002128;28;20515;-67
2022/03/20 07:55:52;;;;;;;17.70;12.48;;;16.10;74.80;;;;;;5014371;28;20042;-66
2022/03/20 07:58:19;;;;;;;18.70;11.60;;;15.70;74.40;;;;;;4996757;28;20046;-66
2022/03/20 08:00:45;;;;;;;14.93;11.77;;;;;;;;;;4997255;28;20396;-66
2022/03/20 08:03:11;;;;;;;15.00;11.90;;;16.00;74.30;;;;;;4996350;28;20416;-66
2022/03/20 08:05:37;;;;;;;16.13;11.70;;;16.10;74.30;;;;;;4996619;28;20137;-67
2022/03/20 08:08:04;;;;;;;19.50;12.07;;;16.00;74.00;;;;;;4996519;28;20130;-66
2022/03/20 08:10:30;;;;;;;17.65;12.73;;;16.20;74.00;;;;;;4996960;28;20050;-66
2022/03/20 08:12:56;;;;;;;18.38;11.63;;;16.20;73.90;;;;;;5005489;28;20048;-68
2022/03/20 08:15:24;;;;;;;16.48;12.10;;;16.20;73.90;;;;;;5003132;28;20515;-67
2022/03/20 08:17:51;;;;;;;20.23;12.13;;;;;;;;;;4996427;28;20052;-67
2022/03/20 08:20:17;;;;;;;15.77;11.63;;;16.30;73.30;;;;;;4998783;28;20049;-66
2022/03/20 08:22:42;;;;;;;16.33;11.80;;;16.30;73.40;;;;;;5014369;28;20116;-66
2022/03/20 08:25:10;;;;;;;17.23;12.05;;;16.00;73.00;;;;;;5005197;28;20133;-66
2022/03/20 08:27:45;;;;;;;17.95;12.25;;;;;;;;;;4997034;28;20038;-67
2022/03/20 08:30:13;;;;;;;26.88;12.50;;;16.40;73.10;;;;;;5011865;28;20052;-67
2022/03/20 08:32:39;;;;;;;20.00;13.32;;;16.40;72.90;;;;;;5015407;28;20046;-66
2022/03/20 08:35:06;;;;;;;20.77;12.75;;;16.30;72.80;;;;;;4996711;28;20053;-66
2022/03/20 08:37:32;;;;;;;17.80;12.52;;;16.50;72.70;;;;;;4996224;28;20039;-66
2022/03/20 08:39:58;;;;;;;22.05;12.73;;;16.60;72.60;;;;;;4994564;28;20444;-69
2022/03/20 08:42:24;;;;;;;19.17;13.60;;;16.40;72.60;;;;;;4995959;28;20365;-67
2022/03/20 08:44:52;;;;;;;29.70;14.20;;;16.40;72.50;;;;;;4999833;28;20045;-66
2022/03/20 08:47:18;;;;;;;21.13;14.10;;;16.30;72.30;;;;;;4995429;28;20042;-67
2022/03/20 08:49:45;;;;;;;19.73;13.20;;;16.30;72.20;;;;;;4995671;28;20038;-66
2022/03/20 08:52:10;;;;;;;19.85;13.88;;;16.40;72.20;;;;;;4996137;28;20049;-69
2022/03/20 08:54:36;;;;;;;22.33;13.48;;;16.60;72.40;;;;;;4995526;28;20481;-67
2022/03/20 08:57:05;;;;;;;21.05;14.10;;;16.40;72.20;;;;;;4995383;28;20125;-67
2022/03/20 08:59:32;;;;;;;20.58;14.38;;;16.40;72.10;;;;;;5007862;28;20054;-67
2022/03/20 09:01:57;;;;;;;18.70;13.60;;;16.30;72.00;;;;;;5003023;28;20125;-66
2022/03/20 09:04:24;;;;;;;21.20;14.20;;;;;;;;;;4995654;28;20117;-68
2022/03/20 09:06:50;;;;;;;21.23;13.85;;;16.20;71.80;;;;;;5005334;28;20049;-67
2022/03/20 09:09:16;;;;;;;20.30;14.43;;;16.20;71.90;;;;;;5005896;28;20050;-66
2022/03/20 09:11:43;;;;;;;21.35;14.00;;;16.10;71.90;;;;;;4995615;28;20547;-67
2022/03/20 09:14:09;;;;;;;18.95;14.40;;;16.40;69.10;;;;;;4995230;28;20121;-67
2022/03/20 09:19:19;;;;;;;22.13;14.40;;;16.10;69.10;;;;;;4996126;28;20057;-72
2022/03/20 09:21:45;;;;;;;22.88;15.05;;;16.30;71.70;;;;;;4993441;28;20038;-70
2022/03/20 09:24:11;;;;;;;20.80;15.20;;;16.10;71.70;;;;;;4995309;28;20388;-72
2022/03/20 09:26:37;;;;;;;22.83;15.40;;;15.80;71.50;;;;;;4995152;28;20050;-72
2022/03/20 09:29:04;;;;;;;21.10;15.90;;;16.20;71.50;;;;;;4993504;28;20053;-72
2022/03/20 09:31:31;;;;;;;21.08;15.82;;;16.30;68.80;;;;;;4978469;28;20130;-69
2022/03/20 09:33:57;;;;;;;20.90;15.90;;;15.70;71.20;;;;;;4994657;28;20118;-70
2022/03/20 09:36:23;;;;;;;22.73;16.45;;;16.00;68.50;;;;;;4998743;28;20492;-71
2022/03/20 09:38:49;;;;;;;23.33;15.40;;;16.00;71.30;;;;;;4994845;28;20046;-71
2022/03/20 09:41:15;;;;;;;19.58;15.30;;;16.00;71.30;;;;;;4993819;28;20062;-71
2022/03/20 09:43:42;;;;;;;22.25;16.35;;;16.10;69.30;;;;;;4976665;28;20412;-70
2022/03/20 09:46:08;;;;;;;22.02;15.65;;;16.30;71.40;;;;;;4993358;28;20114;-71
2022/03/20 09:48:34;;;;;;;23.10;16.70;;;16.00;71.30;;;;;;4978754;28;20050;-68
2022/03/20 09:51:00;;;;;;;23.40;16.23;;;15.90;71.30;;;;;;4993718;28;20086;-69
2022/03/20 09:53:27;;;;;;;23.33;16.10;;;16.10;71.40;;;;;;4999820;28;20050;-71
2022/03/20 09:55:56;;;;;;;23.17;15.75;;;15.90;71.20;;;;;;4989760;28;20120;-68
2022/03/20 09:58:26;;;;;;;24.15;17.33;;;16.00;71.40;;;;;;4996224;28;20053;-68
2022/03/20 10:00:52;;;;;;;25.08;17.42;;;16.00;68.80;;;;;;5014167;28;20076;-70
2022/03/20 10:03:19;;;;;;;23.33;16.98;;;;;;;;;;4996152;28;20073;-70
2022/03/20 10:05:45;;;;;;;22.95;16.95;;;16.00;71.40;;;;;;4979425;28;20192;-65
2022/03/20 10:08:17;;;;;;;22.90;16.67;;;15.90;71.40;;;;;;4959991;28;20061;-68
2022/03/20 10:10:43;;;;;;;24.35;17.73;;;16.10;71.40;;;;;;4964901;28;20103;-66
2022/03/20 10:13:13;;;;;;;24.33;17.27;;;16.00;71.60;;;;;;4977408;28;20485;-65
2022/03/20 10:15:39;;;;;;;24.23;16.88;;;15.80;71.40;;;;;;4994196;28;20050;-66
2022/03/20 10:18:19;;;;;;;21.73;15.98;;;15.90;66.90;;;;;;5001371;28;20057;-66
2022/03/20 10:20:58;;;;;;;22.77;17.17;;;15.80;71.30;;;;;;5001903;28;20038;-69
2022/03/20 10:23:36;;;;;;;23.92;16.58;;;15.90;71.20;;;;;;4994374;28;20400;-66
2022/03/20 10:26:20;;;;;;;23.88;17.67;;;15.80;68.40;;;;;;4989248;28;20051;-69
2022/03/20 10:28:47;;;;;;;25.83;17.88;;;15.90;71.10;;;;;;4993819;28;20034;-69
2022/03/20 10:31:17;;;;;;;23.90;18.05;;;15.80;68.00;;;;;;5004812;28;20054;-69
2022/03/20 10:33:46;;;;;;;26.70;18.40;;;16.10;70.90;;;;;;5013831;28;20038;-69
2022/03/20 10:36:21;;;;;;;26.85;18.25;;;;;;;;;;5012745;28;20054;-69
2022/03/20 10:38:48;;;;;;;24.85;18.08;;;16.00;70.60;;;;;;5008306;28;20038;-68
2022/03/20 10:41:34;;;;;;;25.05;17.70;;;16.10;70.60;;;;;;5003439;28;20057;-61
2022/03/20 10:44:00;;;;;;;23.27;17.63;;;15.90;70.50;;;;;;5004477;28;20050;-61
2022/03/20 10:46:30;;;;;;;28.80;18.50;;;15.90;70.20;;;;;;4994329;28;20519;-69
2022/03/20 10:48:57;;;;;;;24.38;17.67;;;16.00;70.20;;;;;;4993598;28;20054;-69
2022/03/20 10:51:39;;;;;;;24.98;18.02;;;16.00;70.20;;;;;;4993685;28;20558;-70
2022/03/20 10:54:11;;;;;;;28.35;19.33;;;15.70;65.60;;;;;;4992739;28;20378;-61
2022/03/20 10:56:38;;;;;;;26.02;17.63;;;15.80;70.00;;;;;;4994175;28;20125;-61
2022/03/20 10:59:14;;;;;;;25.33;17.75;;;16.00;65.70;;;;;;4994300;28;20037;-66
2022/03/20 11:01:40;;;;;;;27.55;18.33;;;16.10;70.10;;;;;;4994184;28;20054;-66
2022/03/20 11:04:08;;;;;;;24.25;17.80;;;15.90;66.90;;;;;;4996472;28;20047;-65
2022/03/20 11:06:35;;;;;;;25.48;18.00;;;16.00;66.20;;;;;;5000825;28;20057;-67
2022/03/20 11:09:04;;;;;;;25.15;19.08;;;16.20;69.90;;;;;;5017307;28;20046;-63
2022/03/20 11:11:32;;;;;;;26.77;18.60;;;16.00;69.70;;;;;;4999659;28;20057;-62
2022/03/20 11:13:58;;;;;;;27.67;18.75;;;16.10;67.00;;;;;;5016002;28;20050;-66
2022/03/20 11:16:24;;;;;;;25.52;18.80;;;16.00;69.60;;;;;;5004602;28;20130;-67
2022/03/20 11:18:53;;;;;;;27.08;18.85;;;16.30;69.70;;;;;;4996320;28;20061;-66
2022/03/20 11:21:24;;;;;;;25.52;18.15;;;;;;;;;;4986972;28;20396;-70
2022/03/20 11:23:51;;;;;;;26.08;17.73;;;16.10;69.50;;;;;;5004654;28;20391;-66
2022/03/20 11:26:18;;;;;;;25.38;18.15;;;16.20;66.70;;;;;;4988417;28;20053;-67
2022/03/20 11:28:47;;;;;;;24.35;18.17;;;16.10;69.40;;;;;;4986843;28;20037;-65
2022/03/20 11:31:13;;;;;;;26.10;18.35;;;16.00;69.30;;;;;;5005449;28;20046;-65
2022/03/20 11:33:39;;;;;;;26.65;18.67;;;16.10;69.40;;;;;;4996139;28;20113;-64
2022/03/20 11:36:05;;;;;;;23.48;18.02;;;15.90;69.10;;;;;;4997492;28;20066;-64
2022/03/20 11:38:35;;;;;;;25.60;18.52;;;16.00;69.20;;;;;;4997409;28;20092;-65
2022/03/20 11:41:08;;;;;;;24.83;17.83;;;;;;;;;;4971643;28;20493;-63
2022/03/20 11:43:43;;;;;;;25.60;17.85;;;16.20;64.80;;;;;;4997110;28;20129;-65
2022/03/20 11:46:30;;;;;;;25.38;18.13;;;16.50;64.80;;;;;;4990713;28;20046;-63
2022/03/20 11:49:14;;;;;;;25.20;18.58;;;16.30;64.60;;;;;;5002158;28;20082;-70
2022/03/20 11:52:03;;;;;;;26.75;19.00;;;16.30;64.60;;;;;;5003769;28;20110;-70
2022/03/20 11:54:49;;;;;;;24.73;18.23;;;16.40;68.90;;;;;;5012789;28;20057;-66
2022/03/20 11:57:24;;;;;;;24.35;17.52;;;16.30;68.80;;;;;;4995620;28;20046;-65
2022/03/20 11:59:51;;;;;;;25.17;18.27;;;16.50;66.10;;;;;;4996494;28;20054;-66
2022/03/20 12:02:18;;;;;;;24.77;17.77;;;;;;;;;;4996601;28;20477;-64
2022/03/20 12:04:55;;;;;;;27.30;18.35;;;16.50;64.50;;;;;;4997729;28;20097;-65
2022/03/20 12:07:41;;;;;;;24.98;17.88;;;16.60;64.60;;;;;;5005947;28;20400;-69
2022/03/20 12:10:24;;;;;;;24.05;18.58;;;16.70;64.60;;;;;;5016334;28;20138;-69
2022/03/20 12:13:14;;;;;;;23.55;17.25;;;16.70;66.70;;;;;;5011843;28;20048;-70
2022/03/20 12:15:44;;;;;;;24.35;17.65;;;16.50;64.30;;;;;;5002782;28;20057;-64
2022/03/20 12:18:11;;;;;;;24.65;17.20;;;16.50;68.80;;;;;;5010405;28;20046;-63
2022/03/20 12:20:49;;;;;;;24.30;17.13;;;16.70;68.50;;;;;;4996623;28;20133;-65
2022/03/20 12:23:43;;;;;;;23.27;16.52;;;16.50;65.50;;;;;;4996449;28;20050;-66
2022/03/20 12:26:34;;;;;;;26.23;17.38;;;16.60;65.50;;;;;;4996768;28;20058;-66
2022/03/20 12:29:27;;;;;;;27.65;17.35;;;16.80;68.50;;;;;;5008753;28;20415;-66
2022/03/20 12:32:15;;;;;;;25.13;16.92;;;16.80;68.40;;;;;;5005997;28;20053;-66
2022/03/20 12:34:44;;;;;;;26.23;18.00;;;16.70;65.30;;;;;;5015173;28;20184;-70
2022/03/20 12:37:29;;;;;;;23.27;17.13;;;;;;;;;;4998631;28;20423;-62
2022/03/20 12:39:56;;;;;;;24.13;16.92;;;16.60;64.80;;;;;;4990292;28;20081;-62
2022/03/20 12:42:22;;;;;;;23.17;17.05;;;16.80;68.10;;;;;;4996675;28;20046;-61
2022/03/20 12:44:49;;;;;;;21.95;16.05;;;16.80;68.00;;;;;;4995878;28;20488;-63
2022/03/20 12:47:25;;;;;;;24.05;17.55;;;16.70;67.70;;;;;;4995775;28;20445;-61
2022/03/20 12:49:52;;;;;;;23.65;16.75;;;16.70;67.60;;;;;;5006416;28;20041;-71
2022/03/20 12:52:18;;;;;;;26.38;16.80;;;16.40;67.50;;;;;;5015339;28;20522;-70
2022/03/20 12:54:55;;;;;;;22.90;17.25;;;16.60;63.30;;;;;;5015244;28;20050;-70
2022/03/20 12:57:39;;;;;;;26.10;17.50;;;16.70;67.60;;;;;;5015253;28;20058;-62
2022/03/20 13:00:07;;;;;;;22.75;16.70;;;16.20;64.40;;;;;;4994703;28;20496;-61
2022/03/20 13:02:34;;;;;;;29.23;17.42;;;16.30;67.30;;;;;;4995495;28;20098;-61
2022/03/20 13:05:10;;;;;;;24.83;16.95;;;16.80;67.70;;;;;;4987921;28;20053;-61
2022/03/20 13:07:41;;;;;;;25.98;18.00;;;16.60;67.40;;;;;;4995303;28;20054;-61
2022/03/20 13:10:07;;;;;;;25.50;17.25;;;16.50;67.30;;;;;;4994579;28;20061;-64
2022/03/20 13:12:50;;;;;;;25.92;16.42;;;16.60;63.20;;;;;;4978175;28;20050;-62
2022/03/20 13:15:23;;;;;;;24.75;17.67;;;16.50;67.40;;;;;;4978129;28;20050;-64
2022/03/20 13:17:49;;;;;;;26.67;17.77;;;;;;;;;;4995415;28;20057;-67
2022/03/20 13:20:20;;;;;;;31.17;17.13;;;16.20;67.20;;;;;;5013744;28;20440;-62
2022/03/20 13:22:46;;;;;;;32.85;17.60;;;;;;;;;;5014459;28;20049;-63
2022/03/20 13:25:17;;;;;;;28.70;17.60;;;16.60;62.80;;;;;;5014613;28;20053;-66
2022/03/20 13:27:47;;;;;;;23.98;16.05;;;16.60;66.80;;;;;;5013770;28;20128;-65
2022/03/20 13:30:17;;;;;;;29.10;18.48;;;16.40;67.10;;;;;;5015033;28;20181;-65